createdAt,value
2023-01-30T00:04:02.900Z,13.20
2023-01-30T00:09:11.523Z,9.13
2023-01-30T00:14:17.170Z,9.17
2023-01-30T00:19:22.571Z,11.90
2023-01-30T00:24:28.148Z,13.97
2023-01-30T00:29:33.699Z,11.97
2023-01-30T00:34:39.988Z,12.80
2023-01-30T00:39:46.067Z,9.57
2023-01-30T00:45:09.450Z,13.03
2023-01-30T00:50:14.908Z,12.17
2023-01-30T00:55:21.532Z,14.80
2023-01-30T01:00:27.156Z,12.47
2023-01-30T01:05:32.834Z,10.43
2023-01-30T01:10:38.657Z,11.67
2023-01-30T01:15:44.063Z,12.03
2023-01-30T01:20:50.155Z,14.70
2023-01-30T01:25:55.631Z,15.23
2023-01-30T01:31:01.090Z,9.83
2023-01-30T01:36:09.081Z,13.47
2023-01-30T01:41:16.534Z,9.67
2023-01-30T01:46:27.513Z,11.27
2023-01-30T01:51:42.010Z,12.77
2023-01-30T01:56:50.060Z,14.50
2023-01-30T02:01:58.906Z,11.87
2023-01-30T02:07:04.488Z,13.20
2023-01-30T02:12:10.982Z,9.97
2023-01-30T02:17:16.422Z,9.43
2023-01-30T02:22:53.481Z,11.23
2023-01-30T02:28:10.996Z,8.63
2023-01-30T02:33:25.109Z,14.77
2023-01-30T02:38:44.306Z,12.83
2023-01-30T02:44:14.581Z,8.80
2023-01-30T02:49:29.107Z,11.43
2023-01-30T02:54:34.735Z,16.07
2023-01-30T02:59:43.734Z,16.77
2023-01-30T03:05:02.648Z,13.93
2023-01-30T03:10:27.707Z,16.17
2023-01-30T03:15:43.333Z,13.93
2023-01-30T03:20:49.156Z,18.63
2023-01-30T03:25:54.682Z,18.33
2023-01-30T03:31:01.191Z,15.43
2023-01-30T03:36:07.752Z,12.17
2023-01-30T03:41:13.530Z,12.10
2023-01-30T03:46:19.114Z,14.43
2023-01-30T03:51:25.112Z,17.10
2023-01-30T03:56:31.808Z,16.10
2023-01-30T04:01:37.684Z,18.60
2023-01-30T04:06:43.611Z,19.70
2023-01-30T04:11:49.513Z,21.80
2023-01-30T04:16:55.268Z,18.37
2023-01-30T04:22:05.192Z,15.73
2023-01-30T04:27:11.123Z,15.07
2023-01-30T04:32:18.304Z,16.17
2023-01-30T04:37:24.194Z,17.07
2023-01-30T04:42:29.652Z,15.50
2023-01-30T04:48:05.091Z,17.63
2023-01-30T04:53:11.584Z,18.37
2023-01-30T04:58:20.397Z,17.43
2023-01-30T05:03:26.140Z,12.97
2023-01-30T05:08:31.505Z,15.60
2023-01-30T05:13:36.894Z,22.13
2023-01-30T05:18:43.190Z,14.00
2023-01-30T05:23:49.020Z,18.30
2023-01-30T05:28:58.820Z,16.37
2023-01-30T05:34:04.410Z,17.17
2023-01-30T05:39:09.845Z,16.63
2023-01-30T05:44:15.244Z,17.53
2023-01-30T05:49:20.806Z,19.20
2023-01-30T05:54:26.843Z,16.57
2023-01-30T05:59:32.347Z,13.93
2023-01-30T06:04:37.739Z,15.10
2023-01-30T06:09:43.114Z,9.07
2023-01-30T06:14:48.491Z,15.20
2023-01-30T06:19:54.008Z,13.93
2023-01-30T06:24:59.454Z,12.23
2023-01-30T06:30:05.609Z,9.97
2023-01-30T06:35:11.667Z,11.57
2023-01-30T06:40:18.265Z,12.60
2023-01-30T06:45:23.829Z,14.43
2023-01-30T06:50:31.082Z,13.10
2023-01-30T06:55:37.280Z,13.03
2023-01-30T07:00:43.840Z,13.10
2023-01-30T07:05:49.525Z,13.33
2023-01-30T07:10:55.349Z,15.17
2023-01-30T07:16:00.866Z,7.73
2023-01-30T07:21:06.691Z,15.13
2023-01-30T07:26:12.187Z,8.13
2023-01-30T07:31:17.763Z,14.00
2023-01-30T07:36:23.704Z,13.40
2023-01-30T07:41:29.599Z,12.90
2023-01-30T07:46:37.553Z,11.53
2023-01-30T07:51:43.152Z,11.43
2023-01-30T07:56:48.526Z,13.80
2023-01-30T08:01:54.117Z,10.63
2023-01-30T08:06:59.579Z,10.43
2023-01-30T08:12:05.404Z,11.20
2023-01-30T08:17:10.814Z,9.63
2023-01-30T08:22:16.616Z,10.93
2023-01-30T08:27:22.090Z,10.57
2023-01-30T08:32:27.469Z,9.67
2023-01-30T08:37:33.047Z,9.57
2023-01-30T08:42:38.778Z,7.20
2023-01-30T08:47:44.302Z,9.87
2023-01-30T08:52:49.834Z,9.57
2023-01-30T08:57:58.337Z,7.30
2023-01-30T09:03:04.035Z,7.03
2023-01-30T09:08:09.638Z,7.17
2023-01-30T09:13:15.074Z,7.33
2023-01-30T09:18:20.882Z,7.30
2023-01-30T09:23:26.439Z,6.37
2023-01-30T09:28:32.028Z,6.10
2023-01-30T09:33:37.552Z,8.43
2023-01-30T09:38:42.936Z,5.23
2023-01-30T09:44:05.196Z,4.47
2023-01-30T09:49:19.221Z,4.17
2023-01-30T09:54:28.682Z,7.70
2023-01-30T09:59:40.005Z,8.80
2023-01-30T10:05:00.935Z,5.10
2023-01-30T10:10:15.250Z,3.40
2023-01-30T10:15:35.597Z,2.33
2023-01-30T10:20:58.648Z,1.93
2023-01-30T10:26:16.457Z,2.00
2023-01-30T10:31:26.426Z,1.57
2023-01-30T10:36:46.757Z,3.40
2023-01-30T10:41:55.229Z,2.33
2023-01-30T10:47:23.031Z,4.00
2023-01-30T10:52:43.903Z,2.43
2023-01-30T10:57:55.511Z,5.03
2023-01-30T11:03:20.299Z,6.03
2023-01-30T11:08:28.780Z,6.50
2023-01-30T11:13:35.359Z,5.77
2023-01-30T11:24:02.514Z,3.20
2023-01-30T11:29:28.940Z,8.30
2023-01-30T11:34:34.479Z,3.17
2023-01-30T11:39:41.438Z,4.83
2023-01-30T11:44:47.099Z,4.17
2023-01-30T11:50:01.754Z,2.73
2023-01-30T11:55:08.866Z,1.80
2023-01-30T12:00:18.550Z,2.57
2023-01-30T12:05:28.421Z,0.93
2023-01-30T12:10:34.031Z,0.70
2023-01-30T12:15:41.066Z,1.40
2023-01-30T12:21:08.038Z,1.50
2023-01-30T12:26:31.839Z,1.97
2023-01-30T12:31:40.728Z,2.70
2023-01-30T12:36:51.677Z,5.40
2023-01-30T12:42:15.450Z,4.37
2023-01-30T12:47:49.338Z,3.30
2023-01-30T12:53:06.430Z,2.77
2023-01-30T12:58:30.057Z,1.73
2023-01-30T13:03:53.850Z,4.03
2023-01-30T13:09:17.623Z,2.00
2023-01-30T13:14:31.936Z,3.47
2023-01-30T13:19:46.581Z,2.87
2023-01-30T13:25:20.839Z,1.20
2023-01-30T13:30:28.530Z,3.83
2023-01-30T13:35:39.775Z,2.93
2023-01-30T13:40:48.001Z,3.23
2023-01-30T13:45:56.123Z,3.33
2023-01-30T13:51:24.264Z,1.20
2023-01-30T13:56:41.940Z,2.03
2023-01-30T14:02:09.458Z,1.90
2023-01-30T14:07:21.859Z,2.50
2023-01-30T14:12:30.376Z,1.57
2023-01-30T14:17:35.908Z,1.40
2023-01-30T14:22:59.079Z,2.27
2023-01-30T14:28:10.322Z,2.40
2023-01-30T14:33:29.424Z,1.23
2023-01-30T14:38:39.547Z,1.37
2023-01-30T14:43:50.231Z,2.10
2023-01-30T14:49:00.142Z,4.40
2023-01-30T14:54:17.699Z,1.10
2023-01-30T14:59:26.210Z,1.83
2023-01-30T15:04:54.312Z,3.20
2023-01-30T15:10:19.700Z,4.23
2023-01-30T15:15:37.022Z,3.57
2023-01-30T15:20:48.245Z,3.70
2023-01-30T15:26:11.613Z,4.73
2023-01-30T15:31:20.678Z,2.33
2023-01-30T15:36:32.123Z,3.80
2023-01-30T15:41:43.116Z,8.60
2023-01-30T15:47:02.233Z,5.97
2023-01-30T15:52:12.006Z,3.93
2023-01-30T15:57:20.420Z,2.83
2023-01-30T16:02:29.193Z,4.60
2023-01-30T16:07:35.075Z,3.20
2023-01-30T16:12:41.224Z,2.47
2023-01-30T16:17:49.971Z,4.67
2023-01-30T16:22:56.045Z,6.17
2023-01-30T16:28:01.889Z,4.70
2023-01-30T16:33:10.165Z,5.17
2023-01-30T16:38:36.455Z,3.83
2023-01-30T16:43:43.637Z,3.73
2023-01-30T16:48:50.353Z,7.37
2023-01-30T16:53:58.777Z,5.13
2023-01-30T16:59:05.010Z,4.70
2023-01-30T17:04:22.663Z,5.20
2023-01-30T17:09:41.751Z,4.20
2023-01-30T17:14:47.415Z,4.00
2023-01-30T17:19:52.887Z,6.30
2023-01-30T17:25:01.369Z,3.93
2023-01-30T17:30:18.965Z,2.60
2023-01-30T17:35:24.796Z,3.03
2023-01-30T17:40:36.067Z,2.97
2023-01-30T17:45:43.320Z,2.30
2023-01-30T17:50:48.951Z,4.50
2023-01-30T17:55:54.520Z,4.73
2023-01-30T18:00:59.989Z,3.50
2023-01-30T18:06:05.521Z,6.13
2023-01-30T18:11:12.132Z,5.17
2023-01-30T18:16:20.775Z,5.30
2023-01-30T18:21:26.377Z,7.83
2023-01-30T18:26:32.462Z,6.70
2023-01-30T18:31:39.115Z,6.00
2023-01-30T18:36:44.696Z,9.90
2023-01-30T18:41:50.213Z,6.83
2023-01-30T18:46:55.804Z,9.57
2023-01-30T18:52:01.186Z,12.87
2023-01-30T18:57:07.699Z,11.43
2023-01-30T19:02:13.944Z,9.90
2023-01-30T19:07:19.602Z,13.90
2023-01-30T19:12:43.132Z,13.40
2023-01-30T19:17:48.683Z,11.30
2023-01-30T19:22:55.167Z,15.03
2023-01-30T19:28:00.582Z,8.90
2023-01-30T19:33:06.063Z,8.37
2023-01-30T19:38:12.293Z,15.17
2023-01-30T19:43:17.781Z,11.43
2023-01-30T19:48:23.234Z,16.90
2023-01-30T19:53:29.190Z,13.77
2023-01-30T19:58:36.638Z,9.27
2023-01-30T20:03:43.149Z,10.10
2023-01-30T20:08:50.880Z,12.30
2023-01-30T20:13:56.625Z,10.00
2023-01-30T20:19:09.968Z,9.83
2023-01-30T20:24:16.968Z,11.03
2023-01-30T20:29:22.348Z,11.40
2023-01-30T20:34:27.978Z,12.20
2023-01-30T20:39:33.501Z,11.70
2023-01-30T20:44:39.804Z,8.00
2023-01-30T20:49:45.516Z,15.53
2023-01-30T20:54:51.311Z,13.67
2023-01-30T20:59:57.118Z,12.90
2023-01-30T21:05:02.789Z,13.70
2023-01-30T21:10:10.474Z,12.10
2023-01-30T21:15:16.139Z,11.27
2023-01-30T21:20:22.044Z,10.77
2023-01-30T21:25:27.534Z,11.57
2023-01-30T21:30:33.331Z,9.75
2023-01-30T21:35:40.267Z,10.07
2023-01-30T21:40:52.153Z,5.57
2023-01-30T21:46:00.706Z,6.43
2023-01-30T21:51:11.427Z,10.43
2023-01-30T21:56:17.140Z,8.27
2023-01-30T22:01:23.208Z,7.63
2023-01-30T22:06:29.607Z,7.43
2023-01-30T22:11:37.770Z,3.10
2023-01-30T22:16:43.406Z,10.10
2023-01-30T22:21:48.860Z,6.33
2023-01-30T22:26:54.608Z,6.67
2023-01-30T22:32:00.427Z,9.60
2023-01-30T22:37:05.960Z,7.67
2023-01-30T22:42:11.588Z,4.23
2023-01-30T22:47:17.221Z,7.20
2023-01-30T22:52:22.858Z,8.40
2023-01-30T22:57:28.309Z,6.27
2023-01-30T23:02:33.775Z,4.43
2023-01-30T23:07:39.349Z,6.97
2023-01-30T23:13:02.971Z,7.03
2023-01-30T23:18:27.887Z,4.20
2023-01-30T23:23:33.367Z,7.37
2023-01-30T23:28:39.412Z,7.63
2023-01-30T23:33:45.209Z,6.07
2023-01-30T23:38:52.679Z,5.33
2023-01-30T23:43:59.059Z,7.90
2023-01-30T23:49:07.422Z,5.53
2023-01-30T23:54:14.376Z,6.60
2023-01-30T23:59:19.806Z,13.03
